createdAt,value
2019-04-29T00:00:47.924Z,6.50
2019-04-29T00:04:50.960Z,5.60
2019-04-29T00:08:55.797Z,8.23
2019-04-29T00:12:58.920Z,7.33
2019-04-29T00:17:19.872Z,6.83
2019-04-29T00:21:24.294Z,7.23
2019-04-29T00:25:27.251Z,6.10
2019-04-29T00:29:32.343Z,7.80
2019-04-29T00:33:35.199Z,6.80
2019-04-29T00:38:04.087Z,7.37
2019-04-29T00:42:26.767Z,7.33
2019-04-29T00:46:30.261Z,11.93
2019-04-29T00:50:33.123Z,8.20
2019-04-29T00:54:55.485Z,10.23
2019-04-29T00:58:58.375Z,8.70
2019-04-29T01:03:01.632Z,10.20
2019-04-29T01:07:06.247Z,9.70
2019-04-29T01:11:12.431Z,13.93
2019-04-29T01:15:15.496Z,9.07
2019-04-29T01:19:18.630Z,7.87
2019-04-29T01:23:21.693Z,7.50
2019-04-29T01:27:29.511Z,8.93
2019-04-29T01:31:32.741Z,10.93
2019-04-29T01:35:35.627Z,10.83
2019-04-29T01:39:46.143Z,15.00
2019-04-29T01:43:58.761Z,9.07
2019-04-29T01:48:03.658Z,9.10
2019-04-29T01:52:09.635Z,13.50
2019-04-29T01:56:12.631Z,7.57
2019-04-29T02:00:17.208Z,12.30
2019-04-29T02:04:20.227Z,12.03
2019-04-29T02:08:23.220Z,13.00
2019-04-29T02:12:28.245Z,9.37
2019-04-29T02:16:31.305Z,8.80
2019-04-29T02:20:34.318Z,8.03
2019-04-29T02:24:38.956Z,9.03
2019-04-29T02:28:42.076Z,9.97
2019-04-29T02:32:45.082Z,11.30
2019-04-29T02:36:49.682Z,8.60
2019-04-29T02:41:18.384Z,9.90
2019-04-29T02:45:28.704Z,11.63
2019-04-29T02:49:31.652Z,14.33
2019-04-29T02:53:34.750Z,15.63
2019-04-29T02:57:42.820Z,13.17
2019-04-29T03:01:58.355Z,9.17
2019-04-29T03:06:00.778Z,9.20
2019-04-29T03:10:03.921Z,10.90
2019-04-29T03:14:06.938Z,8.43
2019-04-29T03:18:10.257Z,11.20
2019-04-29T03:22:16.157Z,9.13
2019-04-29T03:26:20.028Z,10.90
2019-04-29T03:30:23.038Z,9.37
2019-04-29T03:34:26.481Z,12.47
2019-04-29T03:38:29.520Z,14.90
2019-04-29T03:42:32.524Z,10.30
2019-04-29T03:46:35.451Z,14.47
2019-04-29T03:50:38.429Z,20.50
2019-04-29T03:54:41.378Z,16.07
2019-04-29T03:58:47.762Z,15.07
2019-04-29T04:03:16.451Z,20.27
2019-04-29T04:07:47.787Z,18.77
2019-04-29T04:11:52.457Z,19.50
2019-04-29T04:15:55.547Z,17.53
2019-04-29T04:20:02.234Z,18.30
2019-04-29T04:24:05.183Z,19.03
2019-04-29T04:28:08.149Z,19.67
2019-04-29T04:32:12.886Z,23.10
2019-04-29T04:36:15.851Z,18.63
2019-04-29T04:40:26.675Z,18.33
2019-04-29T04:44:49.493Z,16.60
2019-04-29T04:48:52.604Z,18.17
2019-04-29T04:52:57.347Z,23.63
2019-04-29T04:57:00.310Z,23.10
2019-04-29T05:01:03.425Z,18.27
2019-04-29T05:05:08.295Z,18.77
2019-04-29T05:09:15.665Z,24.50
2019-04-29T05:13:27.276Z,21.90
2019-04-29T05:17:20.791Z,22.60
2019-04-29T05:21:23.788Z,23.90
2019-04-29T05:25:29.083Z,23.17
2019-04-29T05:29:32.101Z,22.50
2019-04-29T05:33:39.342Z,22.50
2019-04-29T05:37:49.059Z,24.00
2019-04-29T05:41:52.006Z,24.07
2019-04-29T05:46:08.424Z,22.80
2019-04-29T05:50:25.378Z,25.57
2019-04-29T05:54:31.606Z,24.60
2019-04-29T05:58:37.787Z,23.30
2019-04-29T06:02:41.200Z,20.93
2019-04-29T06:06:44.136Z,22.73
2019-04-29T06:10:47.073Z,26.87
2019-04-29T06:14:51.945Z,25.73
2019-04-29T06:19:00.103Z,24.53
2019-04-29T06:22:59.778Z,23.60
2019-04-29T06:27:02.741Z,21.57
2019-04-29T06:31:05.718Z,24.47
2019-04-29T06:35:14.198Z,25.57
2019-04-29T06:39:15.624Z,23.87
2019-04-29T06:43:18.610Z,21.20
2019-04-29T06:47:21.587Z,22.97
2019-04-29T06:51:24.553Z,24.63
2019-04-29T06:55:27.461Z,23.67
2019-04-29T06:59:33.174Z,21.20
2019-04-29T07:03:37.479Z,22.30
2019-04-29T07:07:40.413Z,24.77
2019-04-29T07:11:43.440Z,22.93
2019-04-29T07:15:47.754Z,23.40
2019-04-29T07:23:59.312Z,26.17
2019-04-29T07:28:02.267Z,25.40
2019-04-29T07:32:09.236Z,27.90
2019-04-29T07:36:11.449Z,24.97
2019-04-29T07:40:17.057Z,25.37
2019-04-29T07:44:20.062Z,26.70
2019-04-29T07:48:23.100Z,25.67
2019-04-29T07:52:26.280Z,28.17
2019-04-29T07:56:29.180Z,25.33
2019-04-29T08:00:35.611Z,23.80
2019-04-29T08:04:40.383Z,24.23
2019-04-29T08:08:54.207Z,25.30
2019-04-29T08:12:50.536Z,26.33
2019-04-29T08:16:55.400Z,24.43
2019-04-29T08:20:58.545Z,22.70
2019-04-29T08:25:01.573Z,26.50
2019-04-29T08:29:04.949Z,27.17
2019-04-29T08:33:11.941Z,21.33
2019-04-29T08:37:12.790Z,26.60
2019-04-29T08:41:15.707Z,23.83
2019-04-29T08:45:39.039Z,22.30
2019-04-29T08:49:41.406Z,23.63
2019-04-29T08:53:44.484Z,22.53
2019-04-29T08:57:47.610Z,18.97
2019-04-29T09:01:50.634Z,22.73
2019-04-29T09:06:05.028Z,16.67
2019-04-29T09:10:02.035Z,19.00
2019-04-29T09:14:03.248Z,17.60
2019-04-29T09:18:06.213Z,18.93
2019-04-29T09:22:11.150Z,19.47
2019-04-29T09:26:25.243Z,18.80
2019-04-29T09:30:28.670Z,19.13
2019-04-29T09:34:31.608Z,19.90
2019-04-29T09:38:36.791Z,20.10
2019-04-29T09:42:58.783Z,23.00
2019-04-29T09:47:04.132Z,20.37
2019-04-29T09:51:17.361Z,21.43
2019-04-29T09:55:11.554Z,25.93
2019-04-29T09:59:46.301Z,21.20
2019-04-29T10:04:07.618Z,22.17
2019-04-29T10:08:10.669Z,25.00
2019-04-29T10:12:13.849Z,23.30
2019-04-29T10:16:36.052Z,21.60
2019-04-29T10:20:45.694Z,24.50
2019-04-29T10:24:48.669Z,23.67
2019-04-29T10:28:56.595Z,24.90
2019-04-29T10:32:59.760Z,25.27
2019-04-29T10:37:04.668Z,25.90
2019-04-29T10:41:14.887Z,23.60
2019-04-29T10:45:40.733Z,25.30
2019-04-29T10:49:54.709Z,23.70
2019-04-29T10:53:57.804Z,28.30
2019-04-29T10:58:00.847Z,24.80
2019-04-29T11:02:35.122Z,26.20
2019-04-29T11:06:38.459Z,29.17
2019-04-29T11:10:41.558Z,27.07
2019-04-29T11:14:47.578Z,28.77
2019-04-29T11:18:55.065Z,26.37
2019-04-29T11:23:04.428Z,26.53
2019-04-29T11:27:26.582Z,24.97
2019-04-29T11:31:29.757Z,25.07
2019-04-29T11:35:40.689Z,27.90
2019-04-29T11:39:46.161Z,27.80
2019-04-29T11:43:51.088Z,23.60
2019-04-29T11:47:53.858Z,24.20
2019-04-29T11:52:09.183Z,24.33
2019-04-29T11:56:01.825Z,22.60
2019-04-29T12:00:32.216Z,24.03
2019-04-29T12:04:41.990Z,25.07
2019-04-29T12:08:48.237Z,22.93
2019-04-29T12:12:49.557Z,23.33
2019-04-29T12:17:10.650Z,24.03
2019-04-29T12:21:19.560Z,23.33
2019-04-29T12:25:23.033Z,20.60
2019-04-29T12:29:27.536Z,21.93
2019-04-29T12:33:44.268Z,20.93
2019-04-29T12:38:15.756Z,20.23
2019-04-29T12:42:40.175Z,17.77
2019-04-29T12:47:01.147Z,21.20
2019-04-29T12:51:04.253Z,20.43
2019-04-29T12:55:19.745Z,18.70
2019-04-29T12:59:13.146Z,17.17
2019-04-29T13:03:30.902Z,15.10
2019-04-29T13:07:51.519Z,15.40
2019-04-29T13:12:10.985Z,17.23
2019-04-29T13:16:20.623Z,15.20
2019-04-29T13:20:24.877Z,16.00
2019-04-29T13:24:28.258Z,14.80
2019-04-29T13:28:34.488Z,15.43
2019-04-29T13:32:36.271Z,14.20
2019-04-29T13:36:39.241Z,16.80
2019-04-29T13:40:42.291Z,13.63
2019-04-29T13:45:04.467Z,13.53
2019-04-29T13:49:21.735Z,13.97
2019-04-29T13:53:24.751Z,15.40
2019-04-29T13:57:27.760Z,13.53
2019-04-29T14:01:57.801Z,14.53
2019-04-29T14:05:43.031Z,15.93
2019-04-29T14:09:47.839Z,19.30
2019-04-29T14:13:50.878Z,16.53
2019-04-29T14:17:53.890Z,17.20
2019-04-29T14:21:57.000Z,15.17
2019-04-29T14:25:59.962Z,12.77
2019-04-29T14:30:07.816Z,13.40
2019-04-29T14:34:30.697Z,11.33
2019-04-29T14:38:35.925Z,14.50
2019-04-29T14:43:25.419Z,11.07
2019-04-29T14:47:35.325Z,12.70
2019-04-29T14:51:40.211Z,9.70
2019-04-29T14:55:43.195Z,10.73
2019-04-29T14:59:48.032Z,9.87
2019-04-29T15:03:54.518Z,12.20
2019-04-29T15:07:58.872Z,12.90
2019-04-29T15:12:12.498Z,13.70
2019-04-29T15:16:35.019Z,14.30
2019-04-29T15:20:43.549Z,13.03
2019-04-29T15:24:48.409Z,18.00
2019-04-29T15:28:56.391Z,10.93
2019-04-29T15:32:59.826Z,12.03
2019-04-29T15:37:05.565Z,15.07
2019-04-29T15:41:09.825Z,11.93
2019-04-29T15:45:14.275Z,13.03
2019-04-29T15:49:20.048Z,16.30
2019-04-29T15:53:22.439Z,10.00
2019-04-29T15:57:25.321Z,9.60
2019-04-29T16:01:30.471Z,13.07
2019-04-29T16:10:25.568Z,5.97
2019-04-29T16:14:28.735Z,6.30
2019-04-29T16:18:31.974Z,6.67
2019-04-29T16:22:39.140Z,10.13
2019-04-29T16:26:39.882Z,6.83
2019-04-29T16:30:42.883Z,6.00
2019-04-29T16:34:47.027Z,6.53
2019-04-29T16:38:51.358Z,8.07
2019-04-29T16:43:05.936Z,5.37
2019-04-29T16:47:13.297Z,6.37
2019-04-29T16:51:17.126Z,6.30
2019-04-29T16:55:21.721Z,4.37
2019-04-29T16:59:24.714Z,6.27
2019-04-29T17:03:27.709Z,3.73
2019-04-29T17:07:30.774Z,4.50
2019-04-29T17:11:37.816Z,5.83
2019-04-29T17:15:44.470Z,7.30
2019-04-29T17:19:48.290Z,5.63
2019-04-29T17:23:52.886Z,5.93
2019-04-29T17:28:24.102Z,5.00
2019-04-29T17:32:47.611Z,4.53
2019-04-29T17:35:15.559Z,9.70
2019-04-29T17:36:48.170Z,4.33
2019-04-29T17:40:51.526Z,5.23
2019-04-29T17:45:10.091Z,5.33
2019-04-29T17:49:22.145Z,6.97
2019-04-29T17:53:30.699Z,6.10
2019-04-29T17:57:38.805Z,7.80
2019-04-29T18:01:55.268Z,5.80
2019-04-29T18:06:18.800Z,6.23
2019-04-29T18:10:38.621Z,4.43
2019-04-29T18:14:41.850Z,8.30
2019-04-29T18:19:03.259Z,4.50
2019-04-29T18:23:31.699Z,5.67
2019-04-29T18:27:36.876Z,5.43
2019-04-29T18:31:46.152Z,5.03
2019-04-29T18:35:49.408Z,7.60
2019-04-29T18:39:52.389Z,4.93
2019-04-29T18:43:56.444Z,10.70
2019-04-29T18:48:00.170Z,5.80
2019-04-29T18:52:05.665Z,5.97
2019-04-29T18:56:08.124Z,6.53
2019-04-29T19:00:19.286Z,8.87
2019-04-29T19:04:25.459Z,4.10
2019-04-29T19:08:31.647Z,4.80
2019-04-29T19:12:36.193Z,6.37
2019-04-29T19:16:39.563Z,7.20
2019-04-29T19:20:46.069Z,5.87
2019-04-29T19:24:48.229Z,8.20
2019-04-29T19:28:51.550Z,4.00
2019-04-29T19:33:00.362Z,4.47
2019-04-29T19:37:06.721Z,3.93
2019-04-29T19:41:11.583Z,12.73
2019-04-29T19:45:17.747Z,5.40
2019-04-29T19:49:20.627Z,6.57
2019-04-29T19:53:25.156Z,6.07
2019-04-29T19:57:28.171Z,4.70
2019-04-29T20:01:32.448Z,6.27
2019-04-29T20:05:41.678Z,6.77
2019-04-29T20:09:47.474Z,5.37
2019-04-29T20:14:02.223Z,6.33
2019-04-29T20:18:23.387Z,6.10
2019-04-29T20:22:22.496Z,7.80
2019-04-29T20:26:29.547Z,4.80
2019-04-29T20:30:31.376Z,7.60
2019-04-29T20:34:39.148Z,6.77
2019-04-29T20:38:42.345Z,6.83
2019-04-29T20:42:49.016Z,8.87
2019-04-29T20:47:13.202Z,5.37
2019-04-29T20:50:56.631Z,6.53
2019-04-29T20:55:02.531Z,5.60
2019-04-29T20:59:09.090Z,5.90
2019-04-29T21:03:11.409Z,5.93
2019-04-29T21:07:18.520Z,8.20
2019-04-29T21:11:27.746Z,8.80
2019-04-29T21:15:36.229Z,6.73
2019-04-29T21:19:39.596Z,6.83
2019-04-29T21:23:42.619Z,5.27
2019-04-29T21:27:48.266Z,6.67
2019-04-29T21:31:50.717Z,7.47
2019-04-29T21:36:07.389Z,7.87
2019-04-29T21:40:18.860Z,4.53
2019-04-29T21:44:23.665Z,7.20
2019-04-29T21:48:33.593Z,6.13
2019-04-29T21:52:31.752Z,4.53
2019-04-29T21:56:35.644Z,6.03
2019-04-29T22:00:38.784Z,5.57
2019-04-29T22:04:41.827Z,8.23
2019-04-29T22:08:45.299Z,4.87
2019-04-29T22:12:50.971Z,4.63
2019-04-29T22:16:54.272Z,5.00
2019-04-29T22:20:58.134Z,4.90
2019-04-29T22:25:05.803Z,4.90
2019-04-29T22:29:08.386Z,5.10
2019-04-29T22:33:11.292Z,5.47
2019-04-29T22:37:15.662Z,5.40
2019-04-29T22:41:28.173Z,4.60
2019-04-29T22:45:33.966Z,8.57
2019-04-29T22:49:36.056Z,4.83
2019-04-29T22:53:40.073Z,6.27
2019-04-29T22:57:45.215Z,5.10
2019-04-29T23:01:50.735Z,6.37
2019-04-29T23:06:00.227Z,6.80
2019-04-29T23:10:01.882Z,6.00
2019-04-29T23:14:06.679Z,6.50
2019-04-29T23:18:09.516Z,5.37
2019-04-29T23:22:39.160Z,4.93
2019-04-29T23:26:44.891Z,7.00
2019-04-29T23:30:52.237Z,5.50
2019-04-29T23:34:52.959Z,9.07
2019-04-29T23:38:56.683Z,5.93
2019-04-29T23:42:59.943Z,6.67
2019-04-29T23:47:05.164Z,11.10
2019-04-29T23:51:07.631Z,6.63
2019-04-29T23:55:10.674Z,6.47
2019-04-29T23:59:25.070Z,5.87
